sensor_id;sensor_type;location;lat;lon;timestamp;temperature;humidity
5924;DHT22;2987;50.884;14.818;2022-08-19T00:01:40;20.80;99.90
5924;DHT22;2987;50.884;14.818;2022-08-19T00:04:10;20.80;99.90
5924;DHT22;2987;50.884;14.818;2022-08-19T00:06:39;20.70;99.90
5924;DHT22;2987;50.884;14.818;2022-08-19T00:09:07;20.70;99.90
5924;DHT22;2987;50.884;14.818;2022-08-19T00:11:35;20.70;99.90
5924;DHT22;2987;50.884;14.818;2022-08-19T00:14:06;20.60;99.90
5924;DHT22;2987;50.884;14.818;2022-08-19T00:16:36;20.60;99.90
5924;DHT22;2987;50.884;14.818;2022-08-19T00:19:05;20.60;99.90
5924;DHT22;2987;50.884;14.818;2022-08-19T00:21:35;20.60;99.90
5924;DHT22;2987;50.884;14.818;2022-08-19T00:24:09;20.60;99.90
5924;DHT22;2987;50.884;14.818;2022-08-19T00:26:37;20.70;99.90
5924;DHT22;2987;50.884;14.818;2022-08-19T00:29:05;20.70;99.90
5924;DHT22;2987;50.884;14.818;2022-08-19T00:31:31;20.70;99.90
5924;DHT22;2987;50.884;14.818;2022-08-19T00:33:58;20.70;99.90
5924;DHT22;2987;50.884;14.818;2022-08-19T00:36:25;20.80;99.90
5924;DHT22;2987;50.884;14.818;2022-08-19T00:38:52;21.00;99.90
5924;DHT22;2987;50.884;14.818;2022-08-19T00:41:22;21.10;99.90
5924;DHT22;2987;50.884;14.818;2022-08-19T00:44:11;21.20;99.90
5924;DHT22;2987;50.884;14.818;2022-08-19T00:46:42;21.30;99.90
5924;DHT22;2987;50.884;14.818;2022-08-19T00:49:16;21.40;99.90
5924;DHT22;2987;50.884;14.818;2022-08-19T00:51:48;21.50;99.90
5924;DHT22;2987;50.884;14.818;2022-08-19T00:54:16;21.50;99.90
5924;DHT22;2987;50.884;14.818;2022-08-19T00:56:44;21.50;99.90
5924;DHT22;2987;50.884;14.818;2022-08-19T00:59:13;21.50;99.90
5924;DHT22;2987;50.884;14.818;2022-08-19T01:01:41;21.50;99.90
5924;DHT22;2987;50.884;14.818;2022-08-19T01:04:08;21.50;99.90
5924;DHT22;2987;50.884;14.818;2022-08-19T01:06:36;21.50;99.90
5924;DHT22;2987;50.884;14.818;2022-08-19T01:09:04;21.50;99.90
5924;DHT22;2987;50.884;14.818;2022-08-19T01:11:35;21.50;99.90
5924;DHT22;2987;50.884;14.818;2022-08-19T01:14:03;21.60;99.90
5924;DHT22;2987;50.884;14.818;2022-08-19T01:16:30;21.60;99.90
5924;DHT22;2987;50.884;14.818;2022-08-19T01:18:58;21.50;99.90
5924;DHT22;2987;50.884;14.818;2022-08-19T01:21:46;21.50;99.90
5924;DHT22;2987;50.884;14.818;2022-08-19T01:24:14;21.40;99.90
5924;DHT22;2987;50.884;14.818;2022-08-19T01:26:42;21.30;99.90
5924;DHT22;2987;50.884;14.818;2022-08-19T01:29:10;21.30;99.90
5924;DHT22;2987;50.884;14.818;2022-08-19T01:31:37;21.30;99.90
5924;DHT22;2987;50.884;14.818;2022-08-19T01:34:05;21.30;99.90
5924;DHT22;2987;50.884;14.818;2022-08-19T01:36:36;21.20;99.90
5924;DHT22;2987;50.884;14.818;2022-08-19T01:39:09;21.20;99.90
5924;DHT22;2987;50.884;14.818;2022-08-19T01:41:37;21.30;99.90
5924;DHT22;2987;50.884;14.818;2022-08-19T01:44:05;21.40;99.90
5924;DHT22;2987;50.884;14.818;2022-08-19T01:46:32;21.40;99.90
5924;DHT22;2987;50.884;14.818;2022-08-19T01:48:59;21.50;99.90
5924;DHT22;2987;50.884;14.818;2022-08-19T01:51:27;21.60;99.90
5924;DHT22;2987;50.884;14.818;2022-08-19T01:53:54;21.60;99.90
5924;DHT22;2987;50.884;14.818;2022-08-19T01:56:20;21.70;99.90
5924;DHT22;2987;50.884;14.818;2022-08-19T01:58:53;21.70;99.90
5924;DHT22;2987;50.884;14.818;2022-08-19T02:01:21;21.90;99.90
5924;DHT22;2987;50.884;14.818;2022-08-19T02:03:47;22.00;99.90
5924;DHT22;2987;50.884;14.818;2022-08-19T02:06:14;22.10;99.90
5924;DHT22;2987;50.884;14.818;2022-08-19T02:08:41;22.10;99.90
5924;DHT22;2987;50.884;14.818;2022-08-19T02:11:07;22.10;99.90
5924;DHT22;2987;50.884;14.818;2022-08-19T02:13:34;22.10;99.90
5924;DHT22;2987;50.884;14.818;2022-08-19T02:16:01;22.10;99.90
5924;DHT22;2987;50.884;14.818;2022-08-19T02:18:27;22.10;99.90
5924;DHT22;2987;50.884;14.818;2022-08-19T02:20:54;22.00;99.90
5924;DHT22;2987;50.884;14.818;2022-08-19T02:23:21;21.90;99.90
5924;DHT22;2987;50.884;14.818;2022-08-19T02:25:48;21.80;99.90
5924;DHT22;2987;50.884;14.818;2022-08-19T02:28:15;21.60;99.90
5924;DHT22;2987;50.884;14.818;2022-08-19T02:30:42;21.50;99.90
5924;DHT22;2987;50.884;14.818;2022-08-19T02:33:10;21.40;99.90
5924;DHT22;2987;50.884;14.818;2022-08-19T02:35:36;21.30;99.90
5924;DHT22;2987;50.884;14.818;2022-08-19T02:38:02;21.20;99.90
5924;DHT22;2987;50.884;14.818;2022-08-19T02:40:51;21.10;99.90
5924;DHT22;2987;50.884;14.818;2022-08-19T02:43:19;21.00;99.90
5924;DHT22;2987;50.884;14.818;2022-08-19T02:45:46;20.80;99.90
5924;DHT22;2987;50.884;14.818;2022-08-19T02:48:14;20.70;99.90
5924;DHT22;2987;50.884;14.818;2022-08-19T02:50:42;20.60;99.90
5924;DHT22;2987;50.884;14.818;2022-08-19T02:53:08;20.60;99.90
5924;DHT22;2987;50.884;14.818;2022-08-19T02:55:43;20.50;99.90
5924;DHT22;2987;50.884;14.818;2022-08-19T02:58:10;20.50;99.90
5924;DHT22;2987;50.884;14.818;2022-08-19T03:00:45;20.40;99.90
5924;DHT22;2987;50.884;14.818;2022-08-19T03:03:12;20.30;99.90
5924;DHT22;2987;50.884;14.818;2022-08-19T03:05:39;20.30;99.90
5924;DHT22;2987;50.884;14.818;2022-08-19T03:08:07;20.30;99.90
5924;DHT22;2987;50.884;14.818;2022-08-19T03:10:40;20.20;99.90
5924;DHT22;2987;50.884;14.818;2022-08-19T03:13:12;20.20;99.90
5924;DHT22;2987;50.884;14.818;2022-08-19T03:15:42;20.20;99.90
5924;DHT22;2987;50.884;14.818;2022-08-19T03:18:10;20.20;99.90
5924;DHT22;2987;50.884;14.818;2022-08-19T03:20:53;20.30;99.90
5924;DHT22;2987;50.884;14.818;2022-08-19T03:23:20;20.30;99.90
5924;DHT22;2987;50.884;14.818;2022-08-19T03:25:48;20.30;99.90
5924;DHT22;2987;50.884;14.818;2022-08-19T03:28:16;20.30;99.90
5924;DHT22;2987;50.884;14.818;2022-08-19T03:30:53;20.20;99.90
5924;DHT22;2987;50.884;14.818;2022-08-19T03:33:23;20.20;99.90
5924;DHT22;2987;50.884;14.818;2022-08-19T03:36:10;20.30;99.90
5924;DHT22;2987;50.884;14.818;2022-08-19T03:38:39;20.30;99.90
5924;DHT22;2987;50.884;14.818;2022-08-19T03:41:11;20.30;99.90
5924;DHT22;2987;50.884;14.818;2022-08-19T03:43:39;20.30;99.90
5924;DHT22;2987;50.884;14.818;2022-08-19T03:46:12;20.30;99.90
5924;DHT22;2987;50.884;14.818;2022-08-19T03:48:39;20.20;99.90
5924;DHT22;2987;50.884;14.818;2022-08-19T03:51:07;20.20;99.90
5924;DHT22;2987;50.884;14.818;2022-08-19T03:53:35;20.20;99.90
5924;DHT22;2987;50.884;14.818;2022-08-19T03:56:02;20.20;99.90
5924;DHT22;2987;50.884;14.818;2022-08-19T03:58:29;20.10;99.90
5924;DHT22;2987;50.884;14.818;2022-08-19T04:00:56;20.10;99.90
5924;DHT22;2987;50.884;14.818;2022-08-19T04:03:24;20.00;99.90
5924;DHT22;2987;50.884;14.818;2022-08-19T04:05:50;20.00;99.90
5924;DHT22;2987;50.884;14.818;2022-08-19T04:08:16;19.90;99.90
5924;DHT22;2987;50.884;14.818;2022-08-19T04:10:47;19.90;99.90
5924;DHT22;2987;50.884;14.818;2022-08-19T04:13:16;19.90;99.90
5924;DHT22;2987;50.884;14.818;2022-08-19T04:15:45;19.90;99.90
5924;DHT22;2987;50.884;14.818;2022-08-19T04:18:13;19.80;99.90
5924;DHT22;2987;50.884;14.818;2022-08-19T04:20:42;19.80;99.90
5924;DHT22;2987;50.884;14.818;2022-08-19T04:23:08;19.80;99.90
5924;DHT22;2987;50.884;14.818;2022-08-19T04:25:37;19.70;99.90
5924;DHT22;2987;50.884;14.818;2022-08-19T04:28:03;19.70;99.90
5924;DHT22;2987;50.884;14.818;2022-08-19T04:30:30;19.70;99.90
5924;DHT22;2987;50.884;14.818;2022-08-19T04:32:56;19.70;99.90
5924;DHT22;2987;50.884;14.818;2022-08-19T04:35:22;19.70;99.90
5924;DHT22;2987;50.884;14.818;2022-08-19T04:37:48;19.70;99.90
5924;DHT22;2987;50.884;14.818;2022-08-19T04:40:15;19.70;99.90
5924;DHT22;2987;50.884;14.818;2022-08-19T04:43:01;19.80;99.90
5924;DHT22;2987;50.884;14.818;2022-08-19T04:45:27;19.80;99.90
5924;DHT22;2987;50.884;14.818;2022-08-19T04:47:55;19.80;99.90
5924;DHT22;2987;50.884;14.818;2022-08-19T04:50:22;19.80;99.90
5924;DHT22;2987;50.884;14.818;2022-08-19T04:52:50;19.90;99.90
5924;DHT22;2987;50.884;14.818;2022-08-19T04:55:17;19.90;99.90
5924;DHT22;2987;50.884;14.818;2022-08-19T04:57:44;19.90;99.90
5924;DHT22;2987;50.884;14.818;2022-08-19T05:00:11;19.90;99.90
5924;DHT22;2987;50.884;14.818;2022-08-19T05:02:38;20.00;99.90
5924;DHT22;2987;50.884;14.818;2022-08-19T05:05:05;20.00;99.90
5924;DHT22;2987;50.884;14.818;2022-08-19T05:07:32;20.00;99.90
5924;DHT22;2987;50.884;14.818;2022-08-19T05:09:58;20.10;99.90
5924;DHT22;2987;50.884;14.818;2022-08-19T05:12:25;20.20;99.90
5924;DHT22;2987;50.884;14.818;2022-08-19T05:14:53;20.30;99.90
5924;DHT22;2987;50.884;14.818;2022-08-19T05:17:20;20.40;99.90
5924;DHT22;2987;50.884;14.818;2022-08-19T05:19:46;20.50;99.90
5924;DHT22;2987;50.884;14.818;2022-08-19T05:22:33;20.70;99.90
5924;DHT22;2987;50.884;14.818;2022-08-19T05:24:59;20.70;99.90
5924;DHT22;2987;50.884;14.818;2022-08-19T05:27:25;20.80;99.90
5924;DHT22;2987;50.884;14.818;2022-08-19T05:29:51;20.90;99.90
5924;DHT22;2987;50.884;14.818;2022-08-19T05:32:17;21.00;99.90
5924;DHT22;2987;50.884;14.818;2022-08-19T05:34:43;21.10;99.90
5924;DHT22;2987;50.884;14.818;2022-08-19T05:37:09;21.10;99.90
5924;DHT22;2987;50.884;14.818;2022-08-19T05:39:37;21.20;99.90
5924;DHT22;2987;50.884;14.818;2022-08-19T05:42:07;21.20;99.90
5924;DHT22;2987;50.884;14.818;2022-08-19T05:44:37;21.30;99.90
5924;DHT22;2987;50.884;14.818;2022-08-19T05:47:07;21.40;99.90
5924;DHT22;2987;50.884;14.818;2022-08-19T05:49:35;21.50;99.90
5924;DHT22;2987;50.884;14.818;2022-08-19T05:52:06;21.60;99.90
5924;DHT22;2987;50.884;14.818;2022-08-19T05:54:33;21.70;99.90
5924;DHT22;2987;50.884;14.818;2022-08-19T05:57:02;21.80;99.90
5924;DHT22;2987;50.884;14.818;2022-08-19T05:59:29;21.80;99.90
5924;DHT22;2987;50.884;14.818;2022-08-19T06:01:55;21.90;99.90
5924;DHT22;2987;50.884;14.818;2022-08-19T06:04:23;22.00;99.90
5924;DHT22;2987;50.884;14.818;2022-08-19T06:06:51;22.10;99.90
5924;DHT22;2987;50.884;14.818;2022-08-19T06:09:19;22.20;99.90
5924;DHT22;2987;50.884;14.818;2022-08-19T06:11:50;22.20;99.90
5924;DHT22;2987;50.884;14.818;2022-08-19T06:14:22;22.30;99.90
5924;DHT22;2987;50.884;14.818;2022-08-19T06:16:49;22.30;99.90
5924;DHT22;2987;50.884;14.818;2022-08-19T06:19:20;22.30;99.90
5924;DHT22;2987;50.884;14.818;2022-08-19T06:21:49;22.30;99.90
5924;DHT22;2987;50.884;14.818;2022-08-19T06:24:22;22.30;99.90
5924;DHT22;2987;50.884;14.818;2022-08-19T06:26:52;22.30;99.90
5924;DHT22;2987;50.884;14.818;2022-08-19T06:29:21;22.40;99.90
5924;DHT22;2987;50.884;14.818;2022-08-19T06:31:50;22.50;99.90
5924;DHT22;2987;50.884;14.818;2022-08-19T06:34:18;22.50;99.90
5924;DHT22;2987;50.884;14.818;2022-08-19T06:36:47;22.70;99.90
5924;DHT22;2987;50.884;14.818;2022-08-19T06:39:17;23.00;99.90
5924;DHT22;2987;50.884;14.818;2022-08-19T06:41:47;23.10;99.90
5924;DHT22;2987;50.884;14.818;2022-08-19T06:44:21;23.40;99.90
5924;DHT22;2987;50.884;14.818;2022-08-19T06:46:48;23.60;99.90
5924;DHT22;2987;50.884;14.818;2022-08-19T06:49:16;23.70;99.90
5924;DHT22;2987;50.884;14.818;2022-08-19T06:51:44;23.80;99.90
5924;DHT22;2987;50.884;14.818;2022-08-19T06:54:14;24.00;99.90
5924;DHT22;2987;50.884;14.818;2022-08-19T06:56:41;24.00;99.90
5924;DHT22;2987;50.884;14.818;2022-08-19T06:59:10;23.90;99.90
5924;DHT22;2987;50.884;14.818;2022-08-19T07:01:40;23.90;99.90
5924;DHT22;2987;50.884;14.818;2022-08-19T07:04:07;23.80;99.90
5924;DHT22;2987;50.884;14.818;2022-08-19T07:06:35;23.60;99.90
5924;DHT22;2987;50.884;14.818;2022-08-19T07:09:05;23.50;99.90
5924;DHT22;2987;50.884;14.818;2022-08-19T07:11:32;23.40;99.90
5924;DHT22;2987;50.884;14.818;2022-08-19T07:13:59;23.20;99.90
5924;DHT22;2987;50.884;14.818;2022-08-19T07:16:26;23.00;99.90
5924;DHT22;2987;50.884;14.818;2022-08-19T07:18:54;22.90;99.90
5924;DHT22;2987;50.884;14.818;2022-08-19T07:21:24;22.70;99.90
5924;DHT22;2987;50.884;14.818;2022-08-19T07:23:54;22.60;99.90
5924;DHT22;2987;50.884;14.818;2022-08-19T07:26:27;22.60;99.90
5924;DHT22;2987;50.884;14.818;2022-08-19T07:28:55;22.60;99.90
5924;DHT22;2987;50.884;14.818;2022-08-19T07:31:24;22.60;99.90
5924;DHT22;2987;50.884;14.818;2022-08-19T07:33:53;22.70;99.90
5924;DHT22;2987;50.884;14.818;2022-08-19T07:36:27;22.80;99.90
5924;DHT22;2987;50.884;14.818;2022-08-19T07:38:57;23.00;99.90
5924;DHT22;2987;50.884;14.818;2022-08-19T07:41:26;23.10;99.90
5924;DHT22;2987;50.884;14.818;2022-08-19T07:43:55;23.30;99.90
5924;DHT22;2987;50.884;14.818;2022-08-19T07:46:21;23.40;99.90
5924;DHT22;2987;50.884;14.818;2022-08-19T07:48:49;23.50;99.90
5924;DHT22;2987;50.884;14.818;2022-08-19T07:51:18;23.80;99.90
5924;DHT22;2987;50.884;14.818;2022-08-19T07:53:46;24.00;99.90
5924;DHT22;2987;50.884;14.818;2022-08-19T07:56:14;24.10;99.90
5924;DHT22;2987;50.884;14.818;2022-08-19T07:58:43;24.20;99.90
5924;DHT22;2987;50.884;14.818;2022-08-19T08:01:14;24.20;99.90
5924;DHT22;2987;50.884;14.818;2022-08-19T08:03:42;24.10;99.90
5924;DHT22;2987;50.884;14.818;2022-08-19T08:06:28;24.00;99.90
5924;DHT22;2987;50.884;14.818;2022-08-19T08:09:16;23.90;99.90
5924;DHT22;2987;50.884;14.818;2022-08-19T08:11:50;23.90;99.90
5924;DHT22;2987;50.884;14.818;2022-08-19T08:14:20;23.80;99.90
5924;DHT22;2987;50.884;14.818;2022-08-19T08:16:47;23.80;99.90
5924;DHT22;2987;50.884;14.818;2022-08-19T08:19:19;23.70;99.90
5924;DHT22;2987;50.884;14.818;2022-08-19T08:21:47;23.80;99.90
5924;DHT22;2987;50.884;14.818;2022-08-19T08:24:15;23.90;99.90
5924;DHT22;2987;50.884;14.818;2022-08-19T08:26:42;24.00;99.90
5924;DHT22;2987;50.884;14.818;2022-08-19T08:29:11;24.20;99.90
5924;DHT22;2987;50.884;14.818;2022-08-19T08:31:41;24.40;99.90
5924;DHT22;2987;50.884;14.818;2022-08-19T08:34:08;24.60;99.90
5924;DHT22;2987;50.884;14.818;2022-08-19T08:36:41;24.60;99.90
5924;DHT22;2987;50.884;14.818;2022-08-19T08:39:10;24.50;99.90
5924;DHT22;2987;50.884;14.818;2022-08-19T08:41:49;24.50;99.90
5924;DHT22;2987;50.884;14.818;2022-08-19T08:44:23;24.50;99.90
5924;DHT22;2987;50.884;14.818;2022-08-19T08:46:58;24.50;99.90
5924;DHT22;2987;50.884;14.818;2022-08-19T08:54:55;24.90;99.90
5924;DHT22;2987;50.884;14.818;2022-08-19T08:57:32;25.00;99.90
5924;DHT22;2987;50.884;14.818;2022-08-19T09:00:02;25.00;99.90
5924;DHT22;2987;50.884;14.818;2022-08-19T09:02:31;25.00;99.90
5924;DHT22;2987;50.884;14.818;2022-08-19T09:04:58;25.10;99.90
5924;DHT22;2987;50.884;14.818;2022-08-19T09:07:42;25.10;99.90
5924;DHT22;2987;50.884;14.818;2022-08-19T09:10:29;25.10;99.90
5924;DHT22;2987;50.884;14.818;2022-08-19T09:13:25;24.80;99.90
5924;DHT22;2987;50.884;14.818;2022-08-19T09:18:44;24.60;99.90
5924;DHT22;2987;50.884;14.818;2022-08-19T09:21:14;24.40;99.90
5924;DHT22;2987;50.884;14.818;2022-08-19T09:23:41;24.40;99.90
5924;DHT22;2987;50.884;14.818;2022-08-19T09:26:10;24.30;99.90
5924;DHT22;2987;50.884;14.818;2022-08-19T09:28:42;24.10;99.90
5924;DHT22;2987;50.884;14.818;2022-08-19T09:31:15;24.00;99.90
5924;DHT22;2987;50.884;14.818;2022-08-19T09:33:42;24.00;99.90
5924;DHT22;2987;50.884;14.818;2022-08-19T09:36:12;23.70;99.90
5924;DHT22;2987;50.884;14.818;2022-08-19T09:38:40;23.60;99.90
5924;DHT22;2987;50.884;14.818;2022-08-19T09:41:14;23.60;99.90
5924;DHT22;2987;50.884;14.818;2022-08-19T09:43:44;23.60;99.90
5924;DHT22;2987;50.884;14.818;2022-08-19T09:46:12;23.60;99.90
5924;DHT22;2987;50.884;14.818;2022-08-19T09:48:39;23.60;99.90
5924;DHT22;2987;50.884;14.818;2022-08-19T09:51:11;23.60;99.90
5924;DHT22;2987;50.884;14.818;2022-08-19T09:53:42;23.70;99.90
5924;DHT22;2987;50.884;14.818;2022-08-19T09:56:11;23.70;99.90
5924;DHT22;2987;50.884;14.818;2022-08-19T09:58:37;23.60;99.90
5924;DHT22;2987;50.884;14.818;2022-08-19T10:01:05;23.60;99.90
5924;DHT22;2987;50.884;14.818;2022-08-19T10:03:33;23.50;99.90
5924;DHT22;2987;50.884;14.818;2022-08-19T10:06:03;23.50;99.90
5924;DHT22;2987;50.884;14.818;2022-08-19T10:08:32;23.50;99.90
5924;DHT22;2987;50.884;14.818;2022-08-19T10:10:59;23.50;99.90
5924;DHT22;2987;50.884;14.818;2022-08-19T10:13:29;23.60;99.90
5924;DHT22;2987;50.884;14.818;2022-08-19T10:16:03;23.70;99.90
5924;DHT22;2987;50.884;14.818;2022-08-19T10:18:31;23.80;99.90
5924;DHT22;2987;50.884;14.818;2022-08-19T10:21:08;24.00;99.90
5924;DHT22;2987;50.884;14.818;2022-08-19T10:23:37;24.20;99.90
5924;DHT22;2987;50.884;14.818;2022-08-19T10:26:06;24.30;99.90
5924;DHT22;2987;50.884;14.818;2022-08-19T10:28:35;24.50;99.90
5924;DHT22;2987;50.884;14.818;2022-08-19T10:31:07;24.50;99.90
5924;DHT22;2987;50.884;14.818;2022-08-19T10:33:35;24.60;99.90
5924;DHT22;2987;50.884;14.818;2022-08-19T10:36:07;24.70;99.90
5924;DHT22;2987;50.884;14.818;2022-08-19T10:38:34;24.80;99.90
5924;DHT22;2987;50.884;14.818;2022-08-19T10:41:22;24.90;99.90
5924;DHT22;2987;50.884;14.818;2022-08-19T10:43:58;25.00;99.90
5924;DHT22;2987;50.884;14.818;2022-08-19T10:46:27;25.00;99.90
5924;DHT22;2987;50.884;14.818;2022-08-19T10:51:21;25.00;99.90
5924;DHT22;2987;50.884;14.818;2022-08-19T10:54:07;25.00;99.90
5924;DHT22;2987;50.884;14.818;2022-08-19T10:56:34;25.20;99.90
5924;DHT22;2987;50.884;14.818;2022-08-19T10:59:23;25.30;99.90
5924;DHT22;2987;50.884;14.818;2022-08-19T11:01:51;25.20;99.90
5924;DHT22;2987;50.884;14.818;2022-08-19T11:04:18;25.30;99.90
5924;DHT22;2987;50.884;14.818;2022-08-19T11:06:47;25.10;99.90
5924;DHT22;2987;50.884;14.818;2022-08-19T11:09:19;25.30;99.90
5924;DHT22;2987;50.884;14.818;2022-08-19T11:11:46;25.30;99.90
5924;DHT22;2987;50.884;14.818;2022-08-19T11:14:16;25.50;99.90
5924;DHT22;2987;50.884;14.818;2022-08-19T11:16:44;25.60;99.90
5924;DHT22;2987;50.884;14.818;2022-08-19T11:19:11;25.70;99.90
5924;DHT22;2987;50.884;14.818;2022-08-19T11:21:42;25.70;99.90
5924;DHT22;2987;50.884;14.818;2022-08-19T11:24:15;25.80;99.90
5924;DHT22;2987;50.884;14.818;2022-08-19T11:26:43;25.90;99.90
5924;DHT22;2987;50.884;14.818;2022-08-19T11:29:12;26.10;99.90
5924;DHT22;2987;50.884;14.818;2022-08-19T11:31:42;26.30;99.90
5924;DHT22;2987;50.884;14.818;2022-08-19T11:34:12;26.50;99.90
5924;DHT22;2987;50.884;14.818;2022-08-19T11:36:42;26.60;99.90
5924;DHT22;2987;50.884;14.818;2022-08-19T11:39:13;26.70;99.90
5924;DHT22;2987;50.884;14.818;2022-08-19T11:41:40;26.80;99.90
5924;DHT22;2987;50.884;14.818;2022-08-19T11:44:07;26.70;99.90
5924;DHT22;2987;50.884;14.818;2022-08-19T11:46:35;26.60;99.90
5924;DHT22;2987;50.884;14.818;2022-08-19T11:49:04;26.30;99.90
5924;DHT22;2987;50.884;14.818;2022-08-19T11:51:31;26.20;99.90
5924;DHT22;2987;50.884;14.818;2022-08-19T11:54:01;26.10;99.90
5924;DHT22;2987;50.884;14.818;2022-08-19T11:56:28;26.00;99.90
5924;DHT22;2987;50.884;14.818;2022-08-19T11:58:54;26.10;99.90
5924;DHT22;2987;50.884;14.818;2022-08-19T12:01:25;26.30;99.90
5924;DHT22;2987;50.884;14.818;2022-08-19T12:03:53;26.60;99.90
5924;DHT22;2987;50.884;14.818;2022-08-19T12:06:23;26.80;99.90
5924;DHT22;2987;50.884;14.818;2022-08-19T12:08:51;26.90;99.90
5924;DHT22;2987;50.884;14.818;2022-08-19T12:11:18;27.10;99.90
5924;DHT22;2987;50.884;14.818;2022-08-19T12:13:45;27.10;99.90
5924;DHT22;2987;50.884;14.818;2022-08-19T12:16:15;27.10;99.90
5924;DHT22;2987;50.884;14.818;2022-08-19T12:18:43;27.00;99.90
5924;DHT22;2987;50.884;14.818;2022-08-19T12:21:13;27.00;99.90
5924;DHT22;2987;50.884;14.818;2022-08-19T12:23:41;26.90;99.90
5924;DHT22;2987;50.884;14.818;2022-08-19T12:26:10;26.90;99.90
5924;DHT22;2987;50.884;14.818;2022-08-19T12:28:37;27.10;99.90
5924;DHT22;2987;50.884;14.818;2022-08-19T12:31:04;27.40;99.90
5924;DHT22;2987;50.884;14.818;2022-08-19T12:33:31;27.50;99.90
5924;DHT22;2987;50.884;14.818;2022-08-19T12:36:03;27.70;99.90
5924;DHT22;2987;50.884;14.818;2022-08-19T12:38:32;28.00;99.90
5924;DHT22;2987;50.884;14.818;2022-08-19T12:41:01;28.30;99.90
5924;DHT22;2987;50.884;14.818;2022-08-19T12:43:32;28.30;99.90
5924;DHT22;2987;50.884;14.818;2022-08-19T12:46:02;28.20;99.90
5924;DHT22;2987;50.884;14.818;2022-08-19T12:48:31;27.90;99.90
5924;DHT22;2987;50.884;14.818;2022-08-19T12:50:57;27.80;99.90
5924;DHT22;2987;50.884;14.818;2022-08-19T12:53:24;27.60;99.90
5924;DHT22;2987;50.884;14.818;2022-08-19T12:55:57;27.60;99.90
5924;DHT22;2987;50.884;14.818;2022-08-19T12:58:26;27.50;99.90
5924;DHT22;2987;50.884;14.818;2022-08-19T13:00:53;27.50;99.90
5924;DHT22;2987;50.884;14.818;2022-08-19T13:03:20;27.40;99.90
5924;DHT22;2987;50.884;14.818;2022-08-19T13:05:50;27.40;99.90
5924;DHT22;2987;50.884;14.818;2022-08-19T13:08:17;27.40;99.90
5924;DHT22;2987;50.884;14.818;2022-08-19T13:10:43;27.30;99.90
5924;DHT22;2987;50.884;14.818;2022-08-19T13:13:10;27.30;99.90
5924;DHT22;2987;50.884;14.818;2022-08-19T13:16:01;27.10;99.90
5924;DHT22;2987;50.884;14.818;2022-08-19T13:18:29;27.20;99.90
5924;DHT22;2987;50.884;14.818;2022-08-19T13:20:55;27.30;99.90
5924;DHT22;2987;50.884;14.818;2022-08-19T13:23:23;27.20;99.90
5924;DHT22;2987;50.884;14.818;2022-08-19T13:25:58;27.00;99.90
5924;DHT22;2987;50.884;14.818;2022-08-19T13:28:25;27.00;99.90
5924;DHT22;2987;50.884;14.818;2022-08-19T13:30:51;27.10;99.90
5924;DHT22;2987;50.884;14.818;2022-08-19T13:33:38;27.20;99.90
5924;DHT22;2987;50.884;14.818;2022-08-19T13:36:04;27.20;99.90
5924;DHT22;2987;50.884;14.818;2022-08-19T13:38:30;27.10;99.90
5924;DHT22;2987;50.884;14.818;2022-08-19T13:41:04;27.00;99.90
5924;DHT22;2987;50.884;14.818;2022-08-19T13:43:31;27.00;99.90
5924;DHT22;2987;50.884;14.818;2022-08-19T13:45:57;27.00;99.90
5924;DHT22;2987;50.884;14.818;2022-08-19T13:48:25;27.00;99.90
5924;DHT22;2987;50.884;14.818;2022-08-19T13:50:53;27.00;99.90
5924;DHT22;2987;50.884;14.818;2022-08-19T13:53:20;27.10;99.90
5924;DHT22;2987;50.884;14.818;2022-08-19T13:55:46;27.30;99.90
5924;DHT22;2987;50.884;14.818;2022-08-19T13:58:13;27.40;99.90
5924;DHT22;2987;50.884;14.818;2022-08-19T14:00:43;27.60;99.90
5924;DHT22;2987;50.884;14.818;2022-08-19T14:03:10;27.70;99.90
5924;DHT22;2987;50.884;14.818;2022-08-19T14:05:37;27.70;99.90
5924;DHT22;2987;50.884;14.818;2022-08-19T14:08:03;27.80;99.90
5924;DHT22;2987;50.884;14.818;2022-08-19T14:10:29;27.70;99.90
5924;DHT22;2987;50.884;14.818;2022-08-19T14:13:00;27.70;99.90
5924;DHT22;2987;50.884;14.818;2022-08-19T14:15:28;27.70;99.90
5924;DHT22;2987;50.884;14.818;2022-08-19T14:17:55;27.70;99.90
5924;DHT22;2987;50.884;14.818;2022-08-19T14:20:22;27.60;99.90
5924;DHT22;2987;50.884;14.818;2022-08-19T14:22:53;27.70;99.90
5924;DHT22;2987;50.884;14.818;2022-08-19T14:25:24;27.80;99.90
5924;DHT22;2987;50.884;14.818;2022-08-19T14:27:54;27.90;99.90
5924;DHT22;2987;50.884;14.818;2022-08-19T14:30:25;27.80;99.90
5924;DHT22;2987;50.884;14.818;2022-08-19T14:32:55;27.90;99.90
5924;DHT22;2987;50.884;14.818;2022-08-19T14:35:22;28.00;99.90
5924;DHT22;2987;50.884;14.818;2022-08-19T14:37:48;28.00;99.90
5924;DHT22;2987;50.884;14.818;2022-08-19T14:40:18;28.00;99.90
5924;DHT22;2987;50.884;14.818;2022-08-19T14:42:47;28.00;99.90
5924;DHT22;2987;50.884;14.818;2022-08-19T14:45:14;27.90;99.90
5924;DHT22;2987;50.884;14.818;2022-08-19T14:47:40;27.90;99.90
5924;DHT22;2987;50.884;14.818;2022-08-19T14:50:09;27.90;99.90
5924;DHT22;2987;50.884;14.818;2022-08-19T14:52:35;27.90;99.90
5924;DHT22;2987;50.884;14.818;2022-08-19T14:55:02;27.60;99.90
5924;DHT22;2987;50.884;14.818;2022-08-19T14:57:29;27.50;99.90
5924;DHT22;2987;50.884;14.818;2022-08-19T14:59:55;27.40;99.90
5924;DHT22;2987;50.884;14.818;2022-08-19T15:02:23;27.40;99.90
5924;DHT22;2987;50.884;14.818;2022-08-19T15:04:49;27.40;99.90
5924;DHT22;2987;50.884;14.818;2022-08-19T15:07:16;27.40;99.90
5924;DHT22;2987;50.884;14.818;2022-08-19T15:09:42;27.40;99.90
5924;DHT22;2987;50.884;14.818;2022-08-19T15:12:08;27.30;99.90
5924;DHT22;2987;50.884;14.818;2022-08-19T15:14:37;27.20;99.90
5924;DHT22;2987;50.884;14.818;2022-08-19T15:17:05;27.30;99.90
5924;DHT22;2987;50.884;14.818;2022-08-19T15:19:32;27.30;99.90
5924;DHT22;2987;50.884;14.818;2022-08-19T15:21:59;27.20;99.90
5924;DHT22;2987;50.884;14.818;2022-08-19T15:24:26;27.30;99.90
5924;DHT22;2987;50.884;14.818;2022-08-19T15:26:53;27.40;99.90
5924;DHT22;2987;50.884;14.818;2022-08-19T15:29:22;27.40;99.90
5924;DHT22;2987;50.884;14.818;2022-08-19T15:31:51;27.40;99.90
5924;DHT22;2987;50.884;14.818;2022-08-19T15:34:22;27.20;99.90
5924;DHT22;2987;50.884;14.818;2022-08-19T15:36:52;27.20;99.90
5924;DHT22;2987;50.884;14.818;2022-08-19T15:39:19;27.10;99.90
5924;DHT22;2987;50.884;14.818;2022-08-19T15:41:46;27.00;99.90
5924;DHT22;2987;50.884;14.818;2022-08-19T15:44:15;26.90;99.90
5924;DHT22;2987;50.884;14.818;2022-08-19T15:46:45;26.80;99.90
5924;DHT22;2987;50.884;14.818;2022-08-19T15:49:14;26.70;99.90
5924;DHT22;2987;50.884;14.818;2022-08-19T15:51:43;26.50;99.90
5924;DHT22;2987;50.884;14.818;2022-08-19T15:54:14;26.40;99.90
5924;DHT22;2987;50.884;14.818;2022-08-19T15:56:41;26.30;99.90
5924;DHT22;2987;50.884;14.818;2022-08-19T15:59:27;26.10;99.90
5924;DHT22;2987;50.884;14.818;2022-08-19T16:02:12;25.90;99.90
5924;DHT22;2987;50.884;14.818;2022-08-19T16:04:57;25.80;99.90
5924;DHT22;2987;50.884;14.818;2022-08-19T16:07:42;25.60;99.90
5924;DHT22;2987;50.884;14.818;2022-08-19T16:10:09;25.70;99.90